LFPV 181530Z AUTO 31007KT 270V350 CAVOK 27/13 Q1014 NOSIG

ElémentsDécodage
LFPV Station météo située sur l'aérodrome de VILLACOUBLAY Vélizy
181530Z émis le 18 du mois à 15h30 UTC
AUTO Bulletin édité par un automate
31007KT vent du 310°, 07 noeuds
270V350 vent de direction variable entre 270° et 350°
CAVOK Ceiling And Visibility OK
- Visibilité de 10 Km ou plus
- Pas de nuage au-dessous de 1500m ou au-dessous de l'altitude minimale du secteur la plus élevée (si>1500m) et absence de CB
- pas de temps présent significatif
27/13 température 27°C, point de rosée 13°C
 soit une humidité relative de 42%
Q1014 la pression au niveau de la mer (QNH) est de 1014 hPa
NOSIG Pas de changement significatif prévu au cours des deux heures suivant l'heure de l'observation